Time;durP1;ratioP1;P1;durP2;ratioP2;P2;SDS_P1;SDS_P2;PMS_P1;PMS_P2;Temp;Humidity;BMP_temperature;BMP_pressure;BME280_temperature;BME280_humidity;BME280_pressure;Samples;Min_cycle;Max_cycle;Signal;HPM_P1;HPM_P2
2022/01/13 00:02:58;;;;;;;;;;;;;;;20.39;30.68;97675.59;10438422;28;1874;-55
2022/01/13 00:07:59;;;;;;;;;;;;;;;20.41;30.63;97673.53;10441909;28;1837;-55
2022/01/13 00:13:06;;;;;;;;;;;;;;;20.41;30.86;97670.09;10439330;28;2369;-56
2022/01/13 00:18:15;;;;;;;;;;;;;;;20.41;30.48;97680.63;10443091;28;1977;-57
2022/01/13 00:28:35;;;;;;;;;;;;;;;20.41;30.67;97694.63;10448989;28;2072;-57
2022/01/13 00:33:35;;;;;;;;;;;;;;;20.39;30.59;97691.41;10440073;28;1816;-57
2022/01/13 00:38:36;;;;;;;;;;;;;;;20.40;30.76;97703.56;10442214;28;2256;-56
2022/01/13 00:43:39;;;;;;;;;;;;;;;20.40;30.54;97711.47;10440991;28;1768;-58
2022/01/13 00:48:40;;;;;;;;;;;;;;;20.39;30.74;97703.75;10441925;28;1936;-55
2022/01/13 00:53:41;;;;;;;;;;;;;;;20.40;30.55;97708.03;10441995;28;1847;-58
2022/01/13 00:58:41;;;;;;;;;;;;;;;20.38;30.59;97705.59;10442504;28;1971;-58
2022/01/13 01:03:41;;;;;;;;;;;;;;;20.40;30.50;97703.56;10438795;28;1851;-54
2022/01/13 01:08:43;;;;;;;;;;;;;;;20.40;30.48;97703.56;10439059;28;2229;-55
2022/01/13 01:13:45;;;;;;;;;;;;;;;20.36;30.41;97691.84;10439430;28;1898;-58
2022/01/13 01:19:03;;;;;;;;;;;;;;;20.37;30.41;97704.00;10435523;28;1914;-54
2022/01/13 01:39:30;;;;;;;;;;;;;;;20.38;30.47;97716.13;10426653;28;1906;-58
2022/01/13 01:44:35;;;;;;;;;;;;;;;20.37;30.64;97704.00;10437071;28;1847;-58
2022/01/13 01:49:40;;;;;;;;;;;;;;;20.36;30.78;97705.00;10431672;28;1991;-57
2022/01/13 01:54:41;;;;;;;;;;;;;;;20.38;30.70;97705.59;10437728;28;1995;-57
2022/01/13 01:59:42;;;;;;;;;;;;;;;20.38;30.87;97710.06;10437439;28;1985;-58
2022/01/13 02:04:43;;;;;;;;;;;;;;;20.36;30.87;97707.66;10437936;28;1967;-57
2022/01/13 02:09:49;;;;;;;;;;;;;;;20.37;30.76;97696.09;10434261;28;1936;-57
2022/01/13 02:15:05;;;;;;;;;;;;;;;20.37;30.77;97693.47;10435661;28;2125;-57
2022/01/13 02:20:06;;;;;;;;;;;;;;;20.37;30.69;97698.72;10433097;28;2002;-57
2022/01/13 02:25:07;;;;;;;;;;;;;;;20.37;30.45;97693.47;10449579;28;2013;-58
2022/01/13 02:30:12;;;;;;;;;;;;;;;20.36;30.50;97685.78;10438028;28;1939;-58
2022/01/13 02:35:12;;;;;;;;;;;;;;;20.36;30.47;97691.06;10437998;28;1924;-58
2022/01/13 02:40:13;;;;;;;;;;;;;;;20.34;30.30;97690.50;10441379;28;1959;-58
2022/01/13 02:45:20;;;;;;;;;;;;;;;20.35;30.47;97678.91;10436981;28;1932;-58
2022/01/13 02:50:20;;;;;;;;;;;;;;;20.34;30.53;97679.94;10436785;28;1896;-58
2022/01/13 02:55:22;;;;;;;;;;;;;;;20.33;30.37;97687.03;10439743;28;1971;-58
2022/01/13 03:00:23;;;;;;;;;;;;;;;20.35;30.54;97695.53;10444562;28;1906;-58
2022/01/13 03:05:23;;;;;;;;;;;;;;;20.33;30.41;97684.41;10448914;28;2618;-58
2022/01/13 03:10:24;;;;;;;;;;;;;;;20.30;30.27;97697.22;10440718;28;1889;-59
2022/01/13 03:15:24;;;;;;;;;;;;;;;20.32;30.35;97701.22;10444265;28;2004;-57
2022/01/13 03:20:24;;;;;;;;;;;;;;;20.32;30.23;97708.34;10439271;28;1967;-56
2022/01/13 03:25:25;;;;;;;;;;;;;;;20.30;30.43;97711.19;10442029;28;1844;-57
2022/01/13 03:30:25;;;;;;;;;;;;;;;20.30;30.28;97711.19;10444768;28;1944;-57
2022/01/13 03:35:26;;;;;;;;;;;;;;;20.32;30.06;97703.06;10444496;28;1946;-57
2022/01/13 03:40:27;;;;;;;;;;;;;;;20.30;30.13;97695.38;10444964;28;1905;-56
2022/01/13 03:45:28;;;;;;;;;;;;;;;20.28;30.14;97694.81;10442868;28;1966;-56
2022/01/13 03:50:29;;;;;;;;;;;;;;;20.29;30.09;97680.63;10443911;28;1892;-56
2022/01/13 03:55:36;;;;;;;;;;;;;;;20.30;30.06;97682.22;10445919;23;1978;-70
2022/01/13 04:00:55;;;;;;;;;;;;;;;20.27;30.16;97682.69;10434747;28;1966;-71
2022/01/13 04:06:09;;;;;;;;;;;;;;;20.27;30.18;97693.22;10434284;28;2086;-71
2022/01/13 04:11:12;;;;;;;;;;;;;;;20.28;30.04;97676.38;10437178;28;1951;-72
2022/01/13 04:16:13;;;;;;;;;;;;;;;20.30;30.07;97671.69;10438439;28;1939;-71
2022/01/13 04:21:14;;;;;;;;;;;;;;;20.30;30.12;97671.69;10443818;28;1914;-71
2022/01/13 04:26:18;;;;;;;;;;;;;;;20.29;30.00;97677.97;10435738;28;1940;-70
2022/01/13 04:31:18;;;;;;;;;;;;;;;20.28;30.27;97692.16;10442375;28;1949;-71
2022/01/13 04:36:19;;;;;;;;;;;;;;;20.27;30.29;97694.03;10437718;28;1916;-71
2022/01/13 04:41:30;;;;;;;;;;;;;;;20.26;30.23;97696.84;10441042;28;1950;-71
2022/01/13 04:46:30;;;;;;;;;;;;;;;20.28;30.08;97694.81;10420839;28;1939;-72
2022/01/13 04:51:31;;;;;;;;;;;;;;;20.25;30.11;97690.81;10441853;28;1905;-71
2022/01/13 04:56:44;;;;;;;;;;;;;;;20.25;30.08;97679.47;10441241;28;1974;-71
2022/01/13 05:01:44;;;;;;;;;;;;;;;20.26;29.98;97673.16;10436245;28;2021;-71
2022/01/13 05:06:45;;;;;;;;;;;;;;;20.26;29.94;97684.50;10435641;28;2037;-71
2022/01/13 05:11:45;;;;;;;;;;;;;;;20.27;29.67;97678.22;10423096;28;1860;-71
2022/01/13 05:16:59;;;;;;;;;;;;;;;20.26;29.80;97683.69;10436643;28;2072;-71
2022/01/13 05:27:00;;;;;;;;;;;;;;;20.24;30.05;97694.44;10444232;28;1931;-71
2022/01/13 05:32:00;;;;;;;;;;;;;;;20.25;29.76;97697.91;10450623;28;2003;-72
2022/01/13 05:37:00;;;;;;;;;;;;;;;20.24;29.75;97688.38;10436159;28;1881;-71
2022/01/13 05:42:01;;;;;;;;;;;;;;;20.26;29.81;97702.13;10418670;28;1935;-71
2022/01/13 05:47:01;;;;;;;;;;;;;;;20.24;29.88;97704.19;10434118;28;2041;-71
2022/01/13 05:52:02;;;;;;;;;;;;;;;20.24;29.75;97704.19;10436152;28;2003;-70
2022/01/13 05:57:03;;;;;;;;;;;;;;;20.27;29.71;97703.75;10414724;28;1869;-71
2022/01/13 06:02:04;;;;;;;;;;;;;;;20.24;29.77;97709.44;10414534;28;2010;-71
2022/01/13 06:07:04;;;;;;;;;;;;;;;20.26;29.67;97717.91;10425160;28;1823;-71
2022/01/13 06:12:05;;;;;;;;;;;;;;;20.24;29.47;97727.88;10437019;28;1770;-71
2022/01/13 06:17:05;;;;;;;;;;;;;;;20.22;29.50;97740.47;10430645;28;1867;-71
2022/01/13 06:22:07;;;;;;;;;;;;;;;20.22;29.70;97737.84;10436051;28;1963;-69
2022/01/13 06:27:07;;;;;;;;;;;;;;;20.20;29.52;97739.88;10423482;28;1776;-71
2022/01/13 06:32:07;;;;;;;;;;;;;;;20.23;29.53;97728.91;10422912;28;1847;-71
2022/01/13 06:37:08;;;;;;;;;;;;;;;20.21;29.41;97746.78;10447161;28;1816;-70
2022/01/13 06:42:08;;;;;;;;;;;;;;;20.22;29.49;97754.44;10443914;28;1963;-70
2022/01/13 06:47:09;;;;;;;;;;;;;;;20.23;29.35;97757.88;10446176;28;1865;-70
2022/01/13 06:52:09;;;;;;;;;;;;;;;20.23;29.24;97753.44;10446452;28;1876;-71
2022/01/13 06:57:09;;;;;;;;;;;;;;;20.23;29.10;97745.53;10420979;28;1828;-70
2022/01/13 07:02:10;;;;;;;;;;;;;;;20.24;29.27;97755.03;10428172;28;1902;-70
2022/01/13 07:07:10;;;;;;;;;;;;;;;20.19;29.29;97761.97;10444278;28;1763;-70
2022/01/13 07:12:11;;;;;;;;;;;;;;;20.20;29.27;97755.69;10442823;28;1731;-72
2022/01/13 07:17:11;;;;;;;;;;;;;;;20.22;29.46;97756.25;10434470;28;1812;-72
2022/01/13 07:22:12;;;;;;;;;;;;;;;20.25;29.47;97763.72;10436197;28;1930;-72
2022/01/13 07:27:12;;;;;;;;;;;;;;;20.24;29.66;97767.38;10440906;28;1784;-71
2022/01/13 07:32:13;;;;;;;;;;;;;;;20.27;29.87;97769.59;10454918;28;1911;-70
2022/01/13 07:37:13;;;;;;;;;;;;;;;20.31;29.79;97770.75;10439116;28;1838;-70
2022/01/13 07:42:13;;;;;;;;;;;;;;;20.31;29.53;97770.75;10424387;28;1968;-71
2022/01/13 07:47:14;;;;;;;;;;;;;;;20.41;29.49;97763.09;10439558;28;1963;-71
2022/01/13 07:52:14;;;;;;;;;;;;;;;20.55;29.27;97774.25;10422876;28;1959;-72
2022/01/13 07:57:14;;;;;;;;;;;;;;;20.66;29.33;97766.41;10446070;28;2005;-71
2022/01/13 08:02:15;;;;;;;;;;;;;;;20.76;28.99;97771.91;10451099;22;1938;-49
2022/01/13 08:07:16;;;;;;;;;;;;;;;20.90;28.13;97775.94;10386994;28;1785;-53
2022/01/13 08:12:16;;;;;;;;;;;;;;;20.98;27.95;97780.88;10379285;28;1944;-53
2022/01/13 08:22:36;;;;;;;;;;;;;;;20.94;28.29;97785.00;10377132;28;1914;-52
2022/01/13 08:27:37;;;;;;;;;;;;;;;20.87;28.06;97789.59;10371537;28;2373;-56
2022/01/13 08:32:37;;;;;;;;;;;;;;;20.80;28.24;97780.97;10366116;28;1872;-50
2022/01/13 08:37:38;;;;;;;;;;;;;;;20.73;28.23;97779.47;10379635;28;1912;-51
2022/01/13 08:42:38;;;;;;;;;;;;;;;20.68;28.69;97789.88;10381255;28;1906;-52
2022/01/13 08:47:39;;;;;;;;;;;;;;;20.62;28.88;97794.22;10375010;28;1923;-51
2022/01/13 08:52:39;;;;;;;;;;;;;;;20.56;29.07;97797.75;10377417;28;2236;-53
2022/01/13 08:57:40;;;;;;;;;;;;;;;20.54;28.85;97799.81;10378006;28;1839;-51
2022/01/13 09:02:41;;;;;;;;;;;;;;;20.51;29.06;97794.97;10372767;28;1979;-53
2022/01/13 09:07:41;;;;;;;;;;;;;;;20.49;29.07;97809.38;10378511;28;2192;-54
2022/01/13 09:12:42;;;;;;;;;;;;;;;20.47;29.10;97809.63;10376115;28;1956;-53
2022/01/13 09:17:51;;;;;;;;;;;;;;;20.45;29.01;97814.31;10532308;27;2110;-49
2022/01/13 09:22:52;;;;;;;;;;;;;;;20.43;29.15;97805.84;10514200;28;2235;-50
2022/01/13 09:27:52;;;;;;;;;;;;;;;20.42;29.02;97813.97;10513297;28;1877;-52
2022/01/13 09:32:52;;;;;;;;;;;;;;;20.43;29.11;97812.91;10511388;28;1929;-50
2022/01/13 09:37:53;;;;;;;;;;;;;;;20.45;29.19;97814.31;10517599;28;1826;-51
2022/01/13 09:42:54;;;;;;;;;;;;;;;20.45;29.33;97816.94;10514657;28;1846;-51
2022/01/13 09:47:54;;;;;;;;;;;;;;;20.44;29.37;97819.81;10505022;28;1912;-48
2022/01/13 09:52:55;;;;;;;;;;;;;;;20.46;29.41;97829.09;10508553;28;1906;-53
2022/01/13 09:58:00;;;;;;;;;;;;;;;20.44;29.44;97820.63;10525878;22;3577;-55
2022/01/13 10:03:00;;;;;;;;;;;;;;;20.49;29.30;97822.56;10507395;28;1848;-54
2022/01/13 10:08:01;;;;;;;;;;;;;;;20.48;29.24;97829.69;10511688;28;1959;-57
2022/01/13 10:13:05;;;;;;;;;;;;;;;20.46;29.30;97821.19;10515390;28;1902;-57
2022/01/13 10:18:05;;;;;;;;;;;;;;;20.47;29.28;97828.06;10513635;28;1817;-55
2022/01/13 10:23:10;;;;;;;;;;;;;;;20.47;29.29;97809.63;10502618;28;2587;-52
2022/01/13 10:28:11;;;;;;;;;;;;;;;20.48;29.16;97805.97;10486832;28;1728;-55
2022/01/13 10:33:16;;;;;;;;;;;;;;;20.46;29.09;97801.94;10481987;28;1926;-55
2022/01/13 10:38:17;;;;;;;;;;;;;;;20.47;29.07;97787.75;10483649;28;1854;-54
2022/01/13 10:43:23;;;;;;;;;;;;;;;20.47;29.03;97790.38;10480642;28;1963;-56
2022/01/13 10:48:25;;;;;;;;;;;;;;;20.48;28.87;97787.53;10482478;28;2614;-57
2022/01/13 10:53:29;;;;;;;;;;;;;;;20.49;28.81;97775.97;10484263;28;2010;-55
2022/01/13 10:58:31;;;;;;;;;;;;;;;20.48;28.61;97768.28;10484473;28;1927;-55
2022/01/13 11:03:33;;;;;;;;;;;;;;;20.49;28.75;97775.16;10481126;28;1861;-53
2022/01/13 11:08:39;;;;;;;;;;;;;;;20.52;28.55;97772.88;10476738;28;2394;-56
2022/01/13 11:13:39;;;;;;;;;;;;;;;20.53;28.63;97771.84;10495268;28;1963;-55
2022/01/13 11:18:39;;;;;;;;;;;;;;;20.53;28.59;97750.78;10483157;28;1899;-57
2022/01/13 11:23:40;;;;;;;;;;;;;;;20.56;28.57;97744.25;10485133;28;1861;-56
2022/01/13 11:28:41;;;;;;;;;;;;;;;20.58;28.29;97737.72;10481125;28;1791;-57
2022/01/13 11:33:41;;;;;;;;;;;;;;;20.60;28.49;97724.31;10482140;28;1912;-57
2022/01/13 11:38:57;;;;;;;;;;;;;;;20.62;28.26;97724.91;10487634;28;1768;-57
2022/01/13 11:44:13;;;;;;;;;;;;;;;20.62;28.13;97738.88;10480183;28;1764;-57
2022/01/13 11:49:18;;;;;;;;;;;;;;;20.63;28.13;97729.16;10474667;28;1840;-57
2022/01/13 11:54:45;;;;;;;;;;;;;;;20.67;28.29;97720.56;10479192;28;1906;-57
2022/01/13 11:59:54;;;;;;;;;;;;;;;20.68;28.04;97702.91;10459826;28;1862;-58
2022/01/13 12:05:14;;;;;;;;;;;;;;;20.69;28.16;97707.94;10476268;28;2174;-58
2022/01/13 12:10:37;;;;;;;;;;;;;;;20.70;28.02;97706.13;10478526;28;1848;-58
2022/01/13 12:15:42;;;;;;;;;;;;;;;20.74;28.15;97699.38;10465534;28;1997;-55
2022/01/13 12:20:52;;;;;;;;;;;;;;;20.73;28.05;97689.88;10474436;28;1835;-57
2022/01/13 12:25:52;;;;;;;;;;;;;;;20.74;28.15;97694.09;10474217;28;2000;-58
2022/01/13 12:30:53;;;;;;;;;;;;;;;20.79;28.24;97707.41;10473260;28;1938;-57
2022/01/13 12:35:53;;;;;;;;;;;;;;;20.83;28.64;97704.09;10478757;28;2118;-57
2022/01/13 12:41:14;;;;;;;;;;;;;;;20.86;28.64;97700.19;10480981;28;1856;-57
2022/01/13 12:46:14;;;;;;;;;;;;;;;20.90;28.44;97698.69;10473416;28;1899;-58
2022/01/13 12:51:18;;;;;;;;;;;;;;;20.90;28.88;97696.84;10476703;28;1884;-57
2022/01/13 12:56:20;;;;;;;;;;;;;;;20.91;28.78;97695.03;10475314;28;2151;-58
2022/01/13 13:01:22;;;;;;;;;;;;;;;20.94;28.77;97698.00;10478395;28;1856;-57
2022/01/13 13:06:22;;;;;;;;;;;;;;;20.93;28.85;97698.25;10474364;28;1904;-55
2022/01/13 13:11:22;;;;;;;;;;;;;;;20.95;28.78;97690.91;10463371;28;2301;-57
2022/01/13 13:16:23;;;;;;;;;;;;;;;20.94;28.77;97689.28;10472438;28;1902;-56
2022/01/13 13:21:26;;;;;;;;;;;;;;;20.91;28.79;97690.56;10476550;28;1849;-53
2022/01/13 13:26:26;;;;;;;;;;;;;;;20.93;28.91;97691.16;10471532;28;2176;-54
2022/01/13 13:31:27;;;;;;;;;;;;;;;20.95;28.92;97685.63;10472797;28;1892;-56
2022/01/13 13:36:29;;;;;;;;;;;;;;;20.97;28.65;97688.84;10471956;28;2103;-58
2022/01/13 13:41:32;;;;;;;;;;;;;;;20.97;28.79;97678.31;10476356;28;2030;-56
2022/01/13 13:46:33;;;;;;;;;;;;;;;21.00;28.58;97665.44;10475840;28;1928;-56
2022/01/13 13:51:34;;;;;;;;;;;;;;;21.01;28.78;97669.72;10481042;28;2153;-58
2022/01/13 13:56:35;;;;;;;;;;;;;;;21.04;28.63;97663.22;10462372;28;1999;-57
2022/01/13 14:01:37;;;;;;;;;;;;;;;21.11;28.69;97660.44;10472830;28;1916;-57
2022/01/13 14:06:39;;;;;;;;;;;;;;;21.13;28.94;97658.34;10478779;28;1899;-56
2022/01/13 14:11:57;;;;;;;;;;;;;;;21.12;29.06;97670.78;10472863;28;1861;-58
2022/01/13 14:16:57;;;;;;;;;;;;;;;21.10;29.50;97666.75;10480790;28;1906;-56
2022/01/13 14:21:58;;;;;;;;;;;;;;;21.06;29.63;97675.09;10481204;28;1951;-58
2022/01/13 14:27:08;;;;;;;;;;;;;;;21.05;29.26;97684.06;10485940;28;1889;-54
2022/01/13 14:32:12;;;;;;;;;;;;;;;21.03;29.15;97683.50;10482117;28;1934;-57
2022/01/13 14:37:13;;;;;;;;;;;;;;;21.00;29.37;97694.44;10478411;28;1981;-58
2022/01/13 14:42:14;;;;;;;;;;;;;;;21.00;29.08;97696.28;10473156;28;1860;-57
2022/01/13 14:47:14;;;;;;;;;;;;;;;20.97;29.03;97689.66;10483025;28;1859;-58
2022/01/13 14:52:15;;;;;;;;;;;;;;;20.96;29.24;97681.94;10475252;28;1890;-57
2022/01/13 14:57:15;;;;;;;;;;;;;;;20.96;29.02;97677.50;10470826;28;2041;-58
2022/01/13 15:02:16;;;;;;;;;;;;;;;20.94;29.11;97689.28;10471386;28;2872;-56
2022/01/13 15:07:16;;;;;;;;;;;;;;;20.92;29.32;97689.53;10466490;28;1913;-58
2022/01/13 15:12:17;;;;;;;;;;;;;;;20.92;29.11;97692.16;10484487;28;1886;-57
2022/01/13 15:17:17;;;;;;;;;;;;;;;20.91;29.34;97687.94;10469528;28;1906;-56
2022/01/13 15:22:18;;;;;;;;;;;;;;;20.92;29.25;97671.06;10475277;28;2363;-58
2022/01/13 15:27:19;;;;;;;;;;;;;;;20.91;29.38;97677.38;10472831;28;1921;-57
2022/01/13 15:32:19;;;;;;;;;;;;;;;20.88;29.39;97677.03;10475480;28;1828;-58
2022/01/13 15:37:21;;;;;;;;;;;;;;;20.86;29.21;97672.00;10475800;28;1969;-57
2022/01/13 15:42:22;;;;;;;;;;;;;;;20.84;29.18;97667.97;10472000;28;1832;-54
2022/01/13 15:47:22;;;;;;;;;;;;;;;20.81;29.10;97676.34;10472919;28;1800;-57
2022/01/13 15:52:23;;;;;;;;;;;;;;;20.82;29.11;97677.94;10480756;28;1863;-56
2022/01/13 15:57:23;;;;;;;;;;;;;;;20.80;29.03;97672.09;10474723;28;1904;-57
2022/01/13 16:02:24;;;;;;;;;;;;;;;20.78;28.96;97671.53;10472430;28;1854;-54
2022/01/13 16:07:24;;;;;;;;;;;;;;;20.78;28.56;97668.88;10486109;28;1916;-56
2022/01/13 16:12:27;;;;;;;;;;;;;;;20.76;28.84;97661.22;10471868;28;1948;-58
2022/01/13 16:17:28;;;;;;;;;;;;;;;20.74;28.79;97658.00;10481626;28;1979;-57
2022/01/13 16:22:28;;;;;;;;;;;;;;;20.76;28.61;97653.31;10478300;28;1838;-55
2022/01/13 16:27:29;;;;;;;;;;;;;;;20.74;28.42;97647.47;10479087;28;2254;-54
2022/01/13 16:32:30;;;;;;;;;;;;;;;20.71;28.52;97647.91;10476865;28;1862;-57
2022/01/13 16:37:30;;;;;;;;;;;;;;;20.72;28.58;97644.25;10481455;28;2389;-55
2022/01/13 16:42:31;;;;;;;;;;;;;;;20.71;28.45;97647.13;10471217;28;1902;-57
2022/01/13 16:47:31;;;;;;;;;;;;;;;20.71;28.29;97634.72;10473109;28;1889;-55
2022/01/13 16:52:32;;;;;;;;;;;;;;;20.70;28.52;97638.41;10480835;28;1820;-54
2022/01/13 16:57:32;;;;;;;;;;;;;;;20.71;28.35;97633.97;10467419;28;1969;-55
2022/01/13 17:02:33;;;;;;;;;;;;;;;20.69;28.52;97638.66;10481915;28;1840;-58
2022/01/13 17:07:34;;;;;;;;;;;;;;;20.72;28.51;97631.09;10477396;28;1817;-53
2022/01/13 17:12:34;;;;;;;;;;;;;;;20.73;28.85;97630.03;10480295;28;1811;-56
2022/01/13 17:17:35;;;;;;;;;;;;;;;20.77;28.91;97627.75;10478259;28;2369;-58
2022/01/13 17:22:36;;;;;;;;;;;;;;;20.90;29.17;97630.16;10481868;28;1908;-59
2022/01/13 17:27:37;;;;;;;;;;;;;;;20.96;28.95;97635.31;10468587;28;1948;-60
2022/01/13 17:32:38;;;;;;;;;;;;;;;21.02;29.07;97629.13;10450127;28;1880;-54
2022/01/13 17:37:38;;;;;;;;;;;;;;;21.04;29.07;97626.28;10481582;28;1910;-57
2022/01/13 17:42:39;;;;;;;;;;;;;;;21.12;29.23;97635.69;10469790;28;1825;-57
2022/01/13 17:47:39;;;;;;;;;;;;;;;21.16;27.01;97639.44;10474651;28;2139;-56
2022/01/13 17:52:39;;;;;;;;;;;;;;;19.29;26.14;97628.63;10476853;28;1971;-54
2022/01/13 17:57:40;;;;;;;;;;;;;;;20.37;29.14;97638.16;10465814;28;1914;-54
2022/01/13 18:02:41;;;;;;;;;;;;;;;20.70;28.64;97634.97;10474590;28;2398;-54
2022/01/13 18:07:41;;;;;;;;;;;;;;;20.73;27.07;97624.75;10476400;28;1944;-56
2022/01/13 18:12:44;;;;;;;;;;;;;;;21.02;28.64;97621.22;10474549;28;1768;-58
2022/01/13 18:17:45;;;;;;;;;;;;;;;21.18;28.23;97608.38;10476911;28;1975;-58
2022/01/13 18:22:45;;;;;;;;;;;;;;;21.35;28.05;97602.13;10471247;28;1934;-58
2022/01/13 18:27:46;;;;;;;;;;;;;;;21.59;29.63;97593.13;10473074;28;1821;-56
2022/01/13 18:32:46;;;;;;;;;;;;;;;21.74;29.80;97595.25;10479385;28;1998;-57
2022/01/13 18:37:46;;;;;;;;;;;;;;;21.82;30.10;97592.25;10488529;28;2041;-56
2022/01/13 18:42:54;;;;;;;;;;;;;;;21.90;31.08;97599.78;10478954;28;1904;-57
2022/01/13 18:48:01;;;;;;;;;;;;;;;21.97;31.41;97605.69;10484921;28;1881;-56
2022/01/13 18:53:01;;;;;;;;;;;;;;;22.03;31.77;97603.97;10486998;28;2389;-59
2022/01/13 18:58:02;;;;;;;;;;;;;;;22.07;31.94;97615.66;10479899;28;1902;-58
2022/01/13 19:03:02;;;;;;;;;;;;;;;22.10;31.56;97615.97;10483422;28;2334;-58
2022/01/13 19:08:03;;;;;;;;;;;;;;;22.25;30.47;97613.59;10475557;28;1928;-53
2022/01/13 19:13:03;;;;;;;;;;;;;;;22.27;31.97;97613.34;10488894;28;1849;-55
2022/01/13 19:18:05;;;;;;;;;;;;;;;22.24;31.59;97601.41;10491459;28;1910;-59
2022/01/13 19:23:06;;;;;;;;;;;;;;;22.22;31.45;97603.50;10482800;28;1785;-55
2022/01/13 19:28:06;;;;;;;;;;;;;;;22.23;31.44;97602.47;10478702;28;1971;-55
2022/01/13 19:33:07;;;;;;;;;;;;;;;22.27;30.94;97603.59;10484355;28;1811;-51
2022/01/13 19:38:08;;;;;;;;;;;;;;;22.23;31.44;97609.56;10483260;28;1915;-59
2022/01/13 19:43:08;;;;;;;;;;;;;;;22.23;31.03;97605.09;10485584;28;1789;-58
2022/01/13 19:48:09;;;;;;;;;;;;;;;22.21;31.27;97623.03;10482058;28;1863;-57
2022/01/13 19:53:14;;;;;;;;;;;;;;;22.15;31.42;97624.00;10487628;28;1820;-57
2022/01/13 19:58:14;;;;;;;;;;;;;;;22.11;31.15;97628.16;10474321;28;1911;-59
2022/01/13 20:03:14;;;;;;;;;;;;;;;22.11;31.10;97629.97;10478552;28;1836;-54
2022/01/13 20:08:16;;;;;;;;;;;;;;;22.05;31.32;97631.72;10486568;28;1841;-56
2022/01/13 20:13:16;;;;;;;;;;;;;;;22.06;31.20;97627.25;10479870;28;1975;-60
2022/01/13 20:18:16;;;;;;;;;;;;;;;22.10;30.54;97625.72;10475767;28;1788;-55
2022/01/13 20:23:18;;;;;;;;;;;;;;;22.05;30.78;97623.78;10482625;28;1820;-62
2022/01/13 20:28:18;;;;;;;;;;;;;;;22.01;31.01;97617.38;10479294;28;1780;-56
2022/01/13 20:33:19;;;;;;;;;;;;;;;22.10;31.02;97610.69;10481979;28;1948;-58
2022/01/13 20:38:19;;;;;;;;;;;;;;;22.01;31.25;97601.53;10480630;28;1870;-52
2022/01/13 20:43:21;;;;;;;;;;;;;;;22.01;30.75;97595.47;10481532;28;1859;-52
2022/01/13 20:48:22;;;;;;;;;;;;;;;22.00;30.91;97586.75;10482937;28;1832;-59
2022/01/13 20:53:22;;;;;;;;;;;;;;;21.94;30.75;97587.69;10477162;28;1910;-58
2022/01/13 20:58:22;;;;;;;;;;;;;;;21.93;30.66;97580.81;10476996;28;1863;-58
2022/01/13 21:03:23;;;;;;;;;;;;;;;21.96;30.72;97567.13;10480605;28;1993;-56
2022/01/13 21:08:23;;;;;;;;;;;;;;;22.01;30.62;97561.94;10476032;28;1872;-57
2022/01/13 21:13:24;;;;;;;;;;;;;;;22.00;30.32;97562.97;10478134;28;1956;-53
2022/01/13 21:18:24;;;;;;;;;;;;;;;21.96;30.30;97556.56;10479400;28;1773;-53
2022/01/13 21:23:24;;;;;;;;;;;;;;;21.99;30.28;97553.44;10482065;28;1832;-52
2022/01/13 21:28:25;;;;;;;;;;;;;;;21.97;30.32;97557.38;10480218;28;1883;-56
2022/01/13 21:33:27;;;;;;;;;;;;;;;21.95;30.37;97554.97;10482429;28;1918;-58
2022/01/13 21:38:30;;;;;;;;;;;;;;;21.93;30.41;97550.97;10483642;28;2367;-56
2022/01/13 21:43:31;;;;;;;;;;;;;;;21.92;30.04;97554.66;10475648;28;1845;-55
2022/01/13 21:48:32;;;;;;;;;;;;;;;21.91;30.12;97553.84;10485088;28;1836;-56
2022/01/13 21:53:32;;;;;;;;;;;;;;;21.93;30.21;97543.84;10483755;28;1971;-57
2022/01/13 21:58:33;;;;;;;;;;;;;;;21.91;29.99;97538.00;10457237;28;1887;-54
2022/01/13 22:03:33;;;;;;;;;;;;;;;21.90;30.15;97525.84;10486138;28;1808;-53
2022/01/13 22:13:34;;;;;;;;;;;;;;;21.92;30.24;97521.13;10477007;28;2079;-59
2022/01/13 22:18:35;;;;;;;;;;;;;;;21.92;30.23;97523.78;10484371;28;1939;-52
2022/01/13 22:23:36;;;;;;;;;;;;;;;21.98;30.29;97522.81;10476357;28;2135;-55
2022/01/13 22:28:36;;;;;;;;;;;;;;;21.94;30.20;97526.97;10479339;28;2252;-53
2022/01/13 22:33:37;;;;;;;;;;;;;;;21.88;30.26;97517.38;10476670;28;1985;-55
2022/01/13 22:38:37;;;;;;;;;;;;;;;21.93;29.99;97514.78;10478214;28;2413;-52
2022/01/13 22:43:38;;;;;;;;;;;;;;;21.84;29.78;97513.59;10471094;28;1835;-56
2022/01/13 22:48:39;;;;;;;;;;;;;;;21.78;29.82;97512.66;10473831;28;2116;-52
2022/01/13 22:53:39;;;;;;;;;;;;;;;21.79;29.07;97510.84;10480174;28;1902;-52
2022/01/13 22:58:40;;;;;;;;;;;;;;;21.81;29.52;97503.47;10471493;28;1841;-52
2022/01/13 23:03:40;;;;;;;;;;;;;;;21.83;29.27;97498.78;10475637;28;1941;-56
2022/01/13 23:08:41;;;;;;;;;;;;;;;21.82;29.17;97492.72;10467740;28;2380;-53
2022/01/13 23:13:45;;;;;;;;;;;;;;;21.82;29.12;97487.44;10485819;28;1906;-56
2022/01/13 23:24:05;;;;;;;;;;;;;;;21.83;28.87;97489.03;10495230;28;2434;-53
2022/01/13 23:29:05;;;;;;;;;;;;;;;21.84;28.55;97489.84;10475564;28;1893;-55
2022/01/13 23:34:06;;;;;;;;;;;;;;;21.84;28.73;97490.63;10477369;28;1969;-54
2022/01/13 23:39:06;;;;;;;;;;;;;;;21.86;28.26;97475.34;10485221;28;1838;-56
2022/01/13 23:44:10;;;;;;;;;;;;;;;21.86;28.49;97477.22;10479402;28;1886;-54
2022/01/13 23:49:10;;;;;;;;;;;;;;;21.87;28.42;97462.94;10479080;28;1847;-55
2022/01/13 23:54:11;;;;;;;;;;;;;;;21.88;28.32;97460.06;10482749;28;2167;-56
2022/01/13 23:59:11;;;;;;;;;;;;;;;21.90;28.24;97467.78;10478372;28;1825;-53
